Time;durP1;ratioP1;P1;durP2;ratioP2;P2;SDS_P1;SDS_P2;PMS_P1;PMS_P2;Temp;Humidity;BMP_temperature;BMP_pressure;BME280_temperature;BME280_humidity;BME280_pressure;Samples;Min_cycle;Max_cycle;Signal;HPM_P1;HPM_P2
2021/10/01 14:44:34;;;;;;;0.68;0.20;;;;;;;18.61;44.34;99352.81;2038448;71;20139;-81
2021/10/01 14:47:47;;;;;;;0.59;0.30;;;;;;;18.47;44.47;99352.44;2005224;81;1301346;-80
2021/10/01 14:51:29;;;;;;;1.35;0.30;;;;;;;18.42;44.17;99350.00;2019493;81;20204;-81
2021/10/01 14:55:45;;;;;;;1.88;0.30;;;;;;;18.43;44.42;99342.97;2012605;81;20181;-80
2021/10/01 14:59:52;;;;;;;2.15;0.30;;;;;;;18.37;44.94;99346.69;2006864;81;20200;-81
2021/10/01 15:03:31;;;;;;;4.49;0.30;;;;;;;18.34;45.27;99336.31;1969036;81;2942442;-81
2021/10/01 15:06:53;;;;;;;1.17;0.30;;;;;;;18.35;46.68;99331.91;1996002;81;20313;-79
2021/10/01 15:10:39;;;;;;;2.81;0.38;;;;;;;18.33;46.75;99324.06;1997350;81;20170;-80
2021/10/01 15:14:06;;;;;;;6.30;0.36;;;;;;;18.32;47.62;99317.09;1996998;81;20170;-80
2021/10/01 15:17:14;;;;;;;;;;;;;;;18.28;48.06;99320.72;1993405;79;22728;-79
2021/10/01 15:20:27;;;;;;;2.05;0.40;;;;;;;18.20;49.92;99316.69;1994547;81;20058;-81
2021/10/01 15:23:41;;;;;;;1.71;0.21;;;;;;;18.14;50.89;99304.63;1991438;81;20724;-80
2021/10/01 15:26:57;;;;;;;14.49;0.60;;;;;;;18.11;53.55;99308.19;1994068;81;20592;-79
2021/10/01 15:30:04;;;;;;;5.21;0.46;;;;;;;18.12;53.80;99309.91;1986680;81;20209;-79
2021/10/01 15:33:12;;;;;;;6.68;0.46;;;;;;;18.05;56.46;99307.59;1988888;79;20734;-79
2021/10/01 15:36:41;;;;;;;1.17;0.36;;;;;;;18.01;56.07;99308.59;1989635;81;20191;-79
2021/10/01 15:39:53;;;;;;;3.67;0.40;;;;;;;17.84;56.89;99297.84;1981008;81;20210;-79
2021/10/01 15:43:00;;;;;;;2.97;0.60;;;;;;;17.70;56.38;99303.56;1989821;81;20171;-80
2021/10/01 15:46:12;;;;;;;1.36;0.40;;;;;;;17.59;57.80;99308.28;1985744;81;20682;-80
2021/10/01 15:49:16;;;;;;;0.86;0.40;;;;;;;17.50;58.64;99312.09;1983342;81;20802;-79
2021/10/01 15:52:28;;;;;;;8.74;0.64;;;;;;;17.35;60.19;99315.25;1994564;81;20201;-79
2021/10/01 15:55:36;;;;;;;5.11;0.34;;;;;;;17.23;60.58;99313.88;1990436;81;20325;-79
2021/10/01 15:58:58;;;;;;;2.53;0.30;;;;;;;17.16;59.46;99321.09;1994406;81;20822;-80
2021/10/01 16:02:09;;;;;;;6.79;0.60;;;;;;;16.99;62.17;99312.03;1976672;81;1256261;-80
2021/10/01 16:05:25;;;;;;;1.85;0.30;;;;;;;16.86;61.75;99311.56;1991455;81;20198;-79
2021/10/01 16:08:57;;;;;;;2.19;0.40;;;;;;;16.75;63.04;99311.06;1994189;81;20764;-79
2021/10/01 16:12:15;;;;;;;0.88;0.30;;;;;;;16.61;64.07;99309.66;1994041;81;20171;-80
2021/10/01 16:15:23;;;;;;;0.81;0.40;;;;;;;16.48;65.82;99310.06;1978792;81;1003557;-80
2021/10/01 16:18:40;;;;;;;1.50;0.44;;;;;;;16.32;67.01;99314.91;1988087;81;20200;-79
2021/10/01 16:21:45;;;;;;;2.21;0.41;;;;;;;16.19;66.89;99310.94;1987374;81;20307;-79
2021/10/01 16:24:52;;;;;;;2.88;0.57;;;;;;;16.08;67.53;99310.38;1989597;81;20179;-79
2021/10/01 16:28:02;;;;;;;2.85;0.43;;;;;;;15.91;68.76;99306.44;1988096;81;20219;-80
2021/10/01 16:31:07;;;;;;;1.74;0.40;;;;;;;15.80;68.13;99315.47;1990222;79;21830;-79
2021/10/01 16:34:35;;;;;;;1.23;0.50;;;;;;;15.67;68.14;99310.59;1998483;81;20211;-79
2021/10/01 16:38:13;;;;;;;2.08;0.41;;;;;;;15.54;68.45;99311.78;1994687;81;21065;-80
2021/10/01 16:41:21;;;;;;;2.83;0.40;;;;;;;15.38;69.82;99311.31;1997978;81;20758;-80
2021/10/01 16:44:48;;;;;;;3.66;0.60;;;;;;;15.19;70.77;99306.56;1985420;81;20356;-80
2021/10/01 16:48:09;;;;;;;1.19;0.32;;;;;;;15.03;70.89;99309.53;1989786;81;21088;-80
2021/10/01 16:51:16;;;;;;;1.61;0.35;;;;;;;14.88;70.93;99309.03;1989081;81;20208;-80
2021/10/01 16:54:41;;;;;;;1.01;0.40;;;;;;;14.75;71.04;99308.47;1989831;81;20200;-80
2021/10/01 16:57:45;;;;;;;2.08;0.34;;;;;;;14.63;71.27;99293.94;1989085;81;20171;-79
2021/10/01 17:00:55;;;;;;;0.81;0.30;;;;;;;14.52;71.42;99299.38;1969957;81;1495398;-79
2021/10/01 17:04:19;;;;;;;1.61;0.40;;;;;;;14.44;71.58;99303.06;1990889;81;20216;-79
2021/10/01 17:07:26;;;;;;;1.83;0.30;;;;;;;14.27;72.63;99294.69;1990136;81;20209;-79
2021/10/01 17:10:51;;;;;;;0.80;0.30;;;;;;;14.17;72.66;99297.47;1991298;81;20319;-79
2021/10/01 17:14:01;;;;;;;2.86;0.84;;;;;;;14.05;73.43;99292.53;1990952;81;20981;-80
2021/10/01 17:17:20;;;;;;;0.81;0.50;;;;;;;13.94;73.62;99296.22;1989997;81;20205;-79
2021/10/01 17:20:39;;;;;;;3.59;0.40;;;;;;;13.83;73.55;99297.31;1990983;81;20247;-79
2021/10/01 17:24:04;;;;;;;3.05;0.65;;;;;;;13.69;73.68;99296.72;1989786;81;20238;-79
2021/10/01 17:27:22;;;;;;;1.86;0.31;;;;;;;13.62;73.95;99297.69;1987510;81;20176;-81
2021/10/01 17:30:41;;;;;;;1.46;0.40;;;;;;;13.48;74.90;99299.72;1978024;81;982350;-79
2021/10/01 17:34:07;;;;;;;1.13;0.40;;;;;;;13.37;75.35;99301.63;1989895;81;20221;-79
2021/10/01 17:37:11;;;;;;;0.81;0.35;;;;;;;13.27;75.87;99304.38;1991016;81;20189;-79
2021/10/01 17:40:28;;;;;;;0.73;0.39;;;;;;;13.17;76.58;99305.41;1989831;81;20707;-80
2021/10/01 17:43:35;;;;;;;0.86;0.40;;;;;;;13.10;76.64;99303.75;1994482;81;20528;-81
2021/10/01 17:46:44;;;;;;;1.08;0.50;;;;;;;13.02;76.71;99308.25;1994447;81;20179;-79
2021/10/01 17:50:02;;;;;;;0.77;0.44;;;;;;;12.95;76.88;99301.41;1994926;81;20171;-80
2021/10/01 17:53:12;;;;;;;1.83;0.31;;;;;;;12.86;77.42;99301.53;1995480;81;20240;-80
2021/10/01 17:56:17;;;;;;;1.48;0.46;;;;;;;12.81;77.75;99306.84;1994971;81;20333;-79
2021/10/01 17:59:22;;;;;;;0.52;0.31;;;;;;;12.77;78.11;99305.16;1988138;81;20176;-79
2021/10/01 18:02:31;;;;;;;2.01;0.43;;;;;;;12.69;78.72;99297.44;1992473;78;30997;-79
2021/10/01 18:05:35;;;;;;;1.55;0.60;;;;;;;12.64;79.15;99309.69;1994461;81;20213;-79
2021/10/01 18:08:42;;;;;;;1.42;0.43;;;;;;;12.54;79.51;99292.44;1986575;81;20184;-79
2021/10/01 18:11:46;;;;;;;4.39;0.40;;;;;;;12.48;79.84;99299.50;1988069;81;20207;-78
2021/10/01 18:14:49;;;;;;;3.85;0.40;;;;;;;12.41;79.92;99298.72;1994134;81;20676;-79
2021/10/01 18:17:52;;;;;;;1.94;0.60;;;;;;;12.32;80.08;99302.28;1984071;79;29422;-79
2021/10/01 18:20:55;;;;;;;1.27;0.40;;;;;;;12.31;80.12;99292.75;1989002;81;20241;-79
2021/10/01 18:23:58;;;;;;;1.55;0.40;;;;;;;12.26;80.60;99301.53;1990251;81;20192;-78
2021/10/01 18:27:00;;;;;;;0.80;0.49;;;;;;;12.18;81.09;99299.00;1978716;81;20242;-78
2021/10/01 18:30:04;;;;;;;1.25;0.47;;;;;;;12.14;81.29;99293.84;1988949;81;20224;-78
2021/10/01 18:33:07;;;;;;;0.71;0.40;;;;;;;12.09;81.25;99299.97;1993962;81;20468;-80
2021/10/01 18:36:12;;;;;;;1.46;0.60;;;;;;;12.05;81.38;99302.66;1991097;81;20273;-80
2021/10/01 18:39:15;;;;;;;1.44;0.68;;;;;;;12.00;81.54;99304.41;1987316;81;21010;-79
2021/10/01 18:42:19;;;;;;;2.16;0.56;;;;;;;11.94;81.60;99299.28;1994219;81;20219;-79
2021/10/01 18:45:22;;;;;;;2.46;0.51;;;;;;;11.88;81.91;99305.44;1983809;81;20176;-79
2021/10/01 18:48:24;;;;;;;1.09;0.60;;;;;;;11.83;82.05;99296.81;1984667;81;20176;-79
2021/10/01 18:51:27;;;;;;;0.95;0.57;;;;;;;11.78;82.21;99302.06;1988570;81;20195;-79
2021/10/01 18:54:33;;;;;;;2.34;0.50;;;;;;;11.73;82.44;99292.56;1988510;81;20196;-79
2021/10/01 18:57:36;;;;;;;1.50;0.60;;;;;;;11.69;82.59;99301.28;1983348;81;20721;-79
2021/10/01 19:00:39;;;;;;;0.50;0.50;;;;;;;11.65;82.77;99302.16;1985716;81;20266;-80
2021/10/01 19:03:42;;;;;;;1.54;0.59;;;;;;;11.62;82.91;99297.00;1983435;82;20387;-79
2021/10/01 19:06:45;;;;;;;1.41;0.63;;;;;;;11.57;83.09;99297.06;1983597;81;20161;-79
2021/10/01 19:09:48;;;;;;;1.61;0.60;;;;;;;11.55;83.28;99305.75;1983089;81;20196;-79
2021/10/01 19:12:51;;;;;;;1.31;0.60;;;;;;;11.51;83.49;99294.53;1980204;81;20189;-79
2021/10/01 19:15:56;;;;;;;3.04;0.66;;;;;;;11.47;83.68;99293.66;1985431;81;28186;-79
2021/10/01 19:18:58;;;;;;;3.74;0.64;;;;;;;11.46;83.96;99296.28;1991143;81;20184;-79
2021/10/01 19:22:05;;;;;;;0.60;0.60;;;;;;;11.42;84.17;99297.19;1988436;81;20871;-79
2021/10/01 19:31:36;;;;;;;3.35;1.65;;;;;;;11.36;84.63;99298.13;1987535;78;32917;-78
2021/10/01 19:34:40;;;;;;;4.86;0.84;;;;;;;11.35;84.98;99304.19;1988319;81;20192;-79
2021/10/01 19:37:43;;;;;;;1.74;0.71;;;;;;;11.33;84.87;99303.34;1986587;81;20179;-81
2021/10/01 19:40:45;;;;;;;1.85;0.85;;;;;;;11.34;84.91;99302.47;1993175;81;20254;-80
2021/10/01 19:43:50;;;;;;;2.83;0.94;;;;;;;11.35;84.95;99301.59;1986394;81;20305;-79
2021/10/01 19:46:54;;;;;;;2.81;0.69;;;;;;;11.34;85.13;99301.63;1981919;79;33927;-80
2021/10/01 19:49:57;;;;;;;1.77;0.60;;;;;;;11.31;85.42;99297.31;1979015;81;20171;-80
2021/10/01 19:53:00;;;;;;;1.41;0.70;;;;;;;11.30;85.52;99302.50;1986867;81;20182;-79
2021/10/01 19:56:04;;;;;;;0.76;0.70;;;;;;;11.27;85.42;99310.31;1993883;81;20296;-80
2021/10/01 19:59:09;;;;;;;8.77;1.48;;;;;;;11.22;85.39;99309.50;1994153;81;20289;-79
2021/10/01 20:02:15;;;;;;;1.04;0.51;;;;;;;11.19;85.43;99313.00;1987730;79;25637;-79
2021/10/01 20:05:22;;;;;;;2.28;0.66;;;;;;;11.16;85.60;99315.63;1984936;81;20302;-79
2021/10/01 20:08:24;;;;;;;1.51;0.60;;;;;;;11.14;85.86;99307.00;1984075;81;20191;-79
2021/10/01 20:11:28;;;;;;;4.20;0.50;;;;;;;11.11;86.05;99310.44;1985801;81;20211;-79
2021/10/01 20:14:30;;;;;;;0.91;0.60;;;;;;;11.07;86.06;99307.91;1990326;81;20184;-80
2021/10/01 20:17:37;;;;;;;1.67;0.50;;;;;;;11.04;86.15;99306.19;1988162;79;31919;-80
2021/10/01 20:20:53;;;;;;;1.86;0.60;;;;;;;11.01;86.30;99297.56;1979617;81;20195;-79
2021/10/01 20:47:06;;;;;;;1.00;0.70;;;;;;;11.02;87.64;99307.06;1989548;81;20249;-79
2021/10/01 20:50:15;;;;;;;1.90;0.74;;;;;;;11.03;87.86;99301.88;2001911;81;20136;-81
2021/10/01 20:53:18;;;;;;;;;;;;;;;11.09;87.71;99298.34;2020933;81;20140;-82
2021/10/01 20:56:22;;;;;;;1.10;0.79;;;;;;;11.11;87.75;99297.47;2013005;81;20023;-82
2021/10/01 20:59:29;;;;;;;2.11;0.80;;;;;;;11.14;87.72;99307.00;2016738;81;20183;-81
2021/10/01 21:02:40;;;;;;;1.01;0.80;;;;;;;11.13;87.70;99297.44;2012481;81;995353;-81
2021/10/01 21:42:35;;;;;;;1.00;0.80;;;;;;;11.27;88.59;99303.41;2007362;81;20133;-81
2021/10/01 21:46:01;;;;;;;2.54;1.01;;;;;;;11.29;88.63;99300.78;2014078;81;20162;-80
2021/10/01 21:49:05;;;;;;;0.81;0.70;;;;;;;11.32;88.82;99308.56;2013411;81;20184;-81
2021/10/01 21:52:09;;;;;;;3.01;0.96;;;;;;;11.33;88.91;99311.16;2011810;81;20163;-81
2021/10/01 21:55:12;;;;;;;4.97;1.00;;;;;;;11.35;88.87;99311.13;2011404;81;20156;-81
2021/10/01 21:58:17;;;;;;;3.33;0.88;;;;;;;11.37;88.87;99312.00;2010511;81;20250;-81
2021/10/01 22:01:19;;;;;;;2.16;0.84;;;;;;;11.38;89.00;99317.16;2005389;81;20222;-80
2021/10/01 22:08:00;;;;;;;2.61;1.02;;;;;;;11.42;89.23;99316.25;2020775;81;20225;-82
2021/10/01 22:11:16;;;;;;;1.30;0.90;;;;;;;11.43;89.59;99323.19;2020911;81;20195;-81
